Time;durP1;ratioP1;P1;durP2;ratioP2;P2;SDS_P1;SDS_P2;PMS_P1;PMS_P2;Temp;Humidity;BMP_temperature;BMP_pressure;BME280_temperature;BME280_humidity;BME280_pressure;Samples;Min_cycle;Max_cycle;Signal;HPM_P1;HPM_P2
2023/05/09 00:00:17;;;;;;;0.75;0.45;;;21.90;59.70;;;;;;5034499;28;20200;-52
2023/05/09 00:02:47;;;;;;;0.70;0.40;;;21.90;59.70;;;;;;5032988;28;20199;-51
2023/05/09 00:05:18;;;;;;;0.40;0.40;;;22.00;59.80;;;;;;5033659;28;20207;-54
2023/05/09 00:07:51;;;;;;;0.65;0.43;;;22.00;59.80;;;;;;5034149;28;20591;-54
2023/05/09 00:10:21;;;;;;;0.57;0.43;;;22.00;59.70;;;;;;5033367;28;20210;-55
2023/05/09 00:12:52;;;;;;;0.50;0.50;;;22.00;59.70;;;;;;5033433;28;20207;-53
2023/05/09 00:15:23;;;;;;;0.60;0.50;;;22.00;59.70;;;;;;5033925;28;20215;-54
2023/05/09 00:17:54;;;;;;;0.95;0.50;;;22.00;59.70;;;;;;5033674;28;20243;-55
2023/05/09 00:20:25;;;;;;;0.60;0.50;;;22.00;59.70;;;;;;5033329;28;20274;-54
2023/05/09 00:22:58;;;;;;;0.40;0.40;;;22.00;59.70;;;;;;5033213;28;20196;-54
2023/05/09 00:25:28;;;;;;;0.75;0.40;;;22.10;59.70;;;;;;5033695;28;20192;-55
2023/05/09 00:27:59;;;;;;;0.40;0.32;;;22.10;59.70;;;;;;5033777;28;20228;-52
2023/05/09 00:30:30;;;;;;;0.30;0.30;;;22.10;59.60;;;;;;5033592;28;20192;-55
2023/05/09 00:33:00;;;;;;;0.98;0.40;;;22.10;59.60;;;;;;5033323;28;20200;-54
2023/05/09 00:35:31;;;;;;;0.50;0.50;;;22.10;59.60;;;;;;5032795;28;20213;-54
2023/05/09 00:38:04;;;;;;;0.77;0.40;;;22.20;59.60;;;;;;5033448;28;20267;-54
2023/05/09 00:40:36;;;;;;;0.82;0.50;;;22.20;59.70;;;;;;5033489;28;20197;-54
2023/05/09 00:43:07;;;;;;;0.63;0.57;;;22.20;59.60;;;;;;5033003;28;20244;-51
2023/05/09 00:45:37;;;;;;;1.02;0.50;;;22.20;59.60;;;;;;5032955;28;20192;-52
2023/05/09 00:48:08;;;;;;;0.60;0.40;;;22.20;59.60;;;;;;5033305;28;20255;-53
2023/05/09 00:50:39;;;;;;;0.68;0.35;;;22.20;59.60;;;;;;5033578;28;20279;-54
2023/05/09 00:53:13;;;;;;;0.50;0.40;;;22.30;59.70;;;;;;5033458;28;20200;-53
2023/05/09 00:55:43;;;;;;;0.38;0.38;;;22.30;59.70;;;;;;5032659;28;20203;-54
2023/05/09 00:58:14;;;;;;;0.30;0.30;;;22.30;59.70;;;;;;5033415;28;20235;-54
2023/05/09 01:00:45;;;;;;;0.40;0.40;;;22.30;59.70;;;;;;5032770;28;20204;-52
2023/05/09 01:03:16;;;;;;;0.50;0.50;;;22.30;59.60;;;;;;5032966;28;20333;-53
2023/05/09 01:05:57;;;;;;;0.40;0.40;;;22.40;59.60;;;;;;5033201;28;20648;-55
2023/05/09 01:08:45;;;;;;;0.65;0.47;;;22.40;59.60;;;;;;5032013;28;20219;-52
2023/05/09 01:11:23;;;;;;;0.50;0.40;;;22.40;59.60;;;;;;5032503;28;20203;-50
2023/05/09 01:14:06;;;;;;;0.50;0.40;;;22.40;59.60;;;;;;5031694;28;20655;-52
2023/05/09 01:16:43;;;;;;;0.30;0.30;;;22.40;59.60;;;;;;5012768;28;20201;-51
2023/05/09 01:19:29;;;;;;;0.30;0.30;;;22.40;59.60;;;;;;5017507;28;20212;-52
2023/05/09 01:22:02;;;;;;;0.40;0.40;;;22.50;59.70;;;;;;5032671;28;20250;-52
2023/05/09 01:24:56;;;;;;;1.20;0.50;;;22.40;59.60;;;;;;5032646;28;20596;-53
2023/05/09 01:27:44;;;;;;;0.43;0.40;;;22.50;59.70;;;;;;5032249;28;20196;-52
2023/05/09 01:30:19;;;;;;;0.32;0.25;;;22.50;59.60;;;;;;5032704;28;20188;-52
2023/05/09 01:32:53;;;;;;;0.35;0.30;;;22.50;59.60;;;;;;5032410;28;20202;-51
2023/05/09 01:35:27;;;;;;;0.57;0.50;;;22.50;59.60;;;;;;5032383;28;20203;-50
2023/05/09 01:37:58;;;;;;;1.05;0.52;;;22.50;59.60;;;;;;5032236;28;20212;-53
2023/05/09 01:40:32;;;;;;;1.10;0.40;;;22.50;59.60;;;;;;5031788;28;20204;-51
2023/05/09 01:43:07;;;;;;;0.40;0.40;;;22.50;59.60;;;;;;5032765;28;20211;-54
2023/05/09 01:45:40;;;;;;;0.75;0.40;;;22.50;59.50;;;;;;5031903;28;20218;-49
2023/05/09 01:48:12;;;;;;;0.50;0.50;;;22.50;59.60;;;;;;5028623;28;20698;-50
2023/05/09 01:50:44;;;;;;;1.50;0.57;;;22.50;59.50;;;;;;5032337;28;20192;-52
2023/05/09 01:53:17;;;;;;;0.70;0.40;;;22.60;59.60;;;;;;5032445;28;20196;-51
2023/05/09 01:55:51;;;;;;;0.45;0.30;;;22.60;59.60;;;;;;5031837;28;20196;-55
2023/05/09 01:58:23;;;;;;;0.40;0.40;;;22.50;59.50;;;;;;5032506;28;20727;-51
2023/05/09 02:00:56;;;;;;;0.50;0.40;;;22.60;59.50;;;;;;5032438;28;20200;-52
2023/05/09 02:03:28;;;;;;;0.50;0.50;;;22.60;59.50;;;;;;5031898;28;20200;-55
2023/05/09 02:06:01;;;;;;;0.70;0.40;;;22.60;59.60;;;;;;5032160;28;20211;-53
2023/05/09 02:08:32;;;;;;;0.55;0.40;;;22.60;59.50;;;;;;5032530;28;20216;-53
2023/05/09 02:11:03;;;;;;;1.17;0.55;;;22.60;59.50;;;;;;5032398;28;20219;-50
2023/05/09 02:13:34;;;;;;;0.77;0.40;;;22.60;59.50;;;;;;5032467;28;20207;-53
2023/05/09 02:16:06;;;;;;;1.05;0.47;;;22.50;59.40;;;;;;5032148;28;20268;-53
2023/05/09 02:18:37;;;;;;;0.70;0.40;;;22.60;59.50;;;;;;5032312;28;20311;-55
2023/05/09 02:21:09;;;;;;;0.30;0.30;;;22.60;59.50;;;;;;5032315;28;20243;-55
2023/05/09 02:23:39;;;;;;;0.80;0.50;;;22.60;59.50;;;;;;5032109;28;20196;-54
2023/05/09 02:26:10;;;;;;;0.30;0.30;;;22.60;59.50;;;;;;5028310;28;20334;-52
2023/05/09 02:28:43;;;;;;;0.60;0.50;;;22.60;59.50;;;;;;5030930;28;20220;-53
2023/05/09 02:31:19;;;;;;;0.80;0.45;;;22.60;59.50;;;;;;5030021;28;20223;-53
2023/05/09 02:33:51;;;;;;;0.40;0.40;;;22.60;59.50;;;;;;5031343;28;20196;-55
2023/05/09 02:36:22;;;;;;;0.70;0.50;;;22.60;59.50;;;;;;5031453;28;20197;-54
2023/05/09 02:38:53;;;;;;;0.55;0.50;;;22.60;59.50;;;;;;5031292;28;20216;-55
2023/05/09 02:41:23;;;;;;;0.55;0.50;;;22.60;59.40;;;;;;5031619;28;20196;-52
2023/05/09 02:43:54;;;;;;;0.40;0.40;;;22.60;59.40;;;;;;5030709;28;20223;-54
2023/05/09 02:46:27;;;;;;;0.55;0.50;;;22.60;59.50;;;;;;5031037;28;20827;-55
2023/05/09 02:48:57;;;;;;;0.50;0.40;;;22.60;59.40;;;;;;5030185;28;20702;-56
2023/05/09 02:51:28;;;;;;;0.50;0.40;;;22.60;59.40;;;;;;5030676;28;20185;-55
2023/05/09 02:53:59;;;;;;;1.13;0.50;;;22.60;59.50;;;;;;5030355;28;20196;-55
2023/05/09 02:56:29;;;;;;;0.50;0.50;;;22.60;59.50;;;;;;5030666;28;20192;-54
2023/05/09 02:59:00;;;;;;;0.55;0.40;;;22.60;59.50;;;;;;5030781;28;20217;-52
2023/05/09 03:01:32;;;;;;;0.40;0.40;;;22.60;59.50;;;;;;5030917;28;20189;-53
2023/05/09 03:04:03;;;;;;;1.30;0.30;;;22.60;59.50;;;;;;5030710;28;20566;-52
2023/05/09 03:06:34;;;;;;;0.63;0.50;;;22.60;59.50;;;;;;5030337;28;20200;-54
2023/05/09 03:09:05;;;;;;;0.73;0.40;;;22.60;59.50;;;;;;5029142;28;20214;-55
2023/05/09 03:11:37;;;;;;;0.32;0.32;;;22.60;59.40;;;;;;5029811;28;20191;-53
2023/05/09 03:14:09;;;;;;;0.52;0.40;;;22.60;59.40;;;;;;5030353;28;20235;-55
2023/05/09 03:16:42;;;;;;;1.17;0.38;;;22.60;59.40;;;;;;5030093;28;20212;-51
2023/05/09 03:19:16;;;;;;;0.68;0.40;;;22.60;59.40;;;;;;5031087;28;20224;-55
2023/05/09 03:21:46;;;;;;;1.02;0.38;;;22.60;59.40;;;;;;5030181;28;20562;-54
2023/05/09 03:24:17;;;;;;;0.45;0.43;;;22.60;59.40;;;;;;5030829;28;20224;-53
2023/05/09 03:26:48;;;;;;;1.08;0.50;;;22.60;59.40;;;;;;5030620;28;20188;-54
2023/05/09 03:29:18;;;;;;;0.30;0.30;;;22.60;59.40;;;;;;5030042;28;20228;-53
2023/05/09 03:31:51;;;;;;;0.65;0.40;;;22.60;59.40;;;;;;5031015;28;20193;-54
2023/05/09 03:34:22;;;;;;;0.77;0.65;;;22.60;59.30;;;;;;5030244;28;20207;-53
2023/05/09 03:36:52;;;;;;;0.47;0.47;;;22.60;59.30;;;;;;5030440;28;20188;-55
2023/05/09 03:39:23;;;;;;;0.43;0.40;;;22.60;59.40;;;;;;5030004;28;20602;-55
2023/05/09 03:41:53;;;;;;;0.77;0.60;;;22.60;59.40;;;;;;5030872;28;20223;-55
2023/05/09 03:44:24;;;;;;;0.70;0.40;;;22.60;59.40;;;;;;5030010;28;20235;-55
2023/05/09 03:46:57;;;;;;;0.50;0.50;;;22.50;59.30;;;;;;5029793;28;20203;-53
2023/05/09 03:49:27;;;;;;;0.50;0.50;;;22.50;59.30;;;;;;5030576;28;20212;-55
2023/05/09 03:51:58;;;;;;;0.40;0.40;;;22.50;59.30;;;;;;5030490;28;20188;-54
2023/05/09 03:54:29;;;;;;;0.70;0.60;;;22.50;59.20;;;;;;5030582;28;20211;-55
2023/05/09 03:56:59;;;;;;;0.40;0.40;;;22.50;59.20;;;;;;5029778;28;20566;-53
2023/05/09 03:59:30;;;;;;;0.50;0.50;;;22.50;59.20;;;;;;5030524;28;20216;-53
2023/05/09 04:02:03;;;;;;;0.50;0.50;;;22.50;59.10;;;;;;5029395;28;20219;-55
2023/05/09 04:04:33;;;;;;;0.73;0.40;;;22.50;59.00;;;;;;5029853;28;20227;-55
2023/05/09 04:07:04;;;;;;;1.00;0.65;;;22.50;59.00;;;;;;5029353;28;20199;-56
2023/05/09 04:09:35;;;;;;;0.82;0.55;;;22.50;58.80;;;;;;5029424;28;20691;-52
2023/05/09 04:12:05;;;;;;;0.55;0.50;;;22.50;58.70;;;;;;5032629;28;20200;-55
2023/05/09 04:14:36;;;;;;;0.90;0.68;;;22.50;59.30;;;;;;5033332;28;20522;-55
2023/05/09 04:17:09;;;;;;;1.27;0.73;;;22.50;58.70;;;;;;5033694;28;20196;-55
2023/05/09 04:19:39;;;;;;;1.15;0.77;;;22.40;58.60;;;;;;5033501;28;20220;-52
2023/05/09 04:22:10;;;;;;;1.17;0.55;;;22.40;58.60;;;;;;5026234;28;20645;-53
2023/05/09 04:24:40;;;;;;;2.25;0.90;;;22.40;58.60;;;;;;5033261;28;20234;-54
2023/05/09 04:27:11;;;;;;;0.65;0.60;;;22.40;58.60;;;;;;5033700;28;20199;-54
2023/05/09 04:29:42;;;;;;;0.82;0.60;;;22.40;58.60;;;;;;5033301;28;20220;-54
2023/05/09 04:32:14;;;;;;;1.15;0.70;;;22.40;58.60;;;;;;5033215;28;20203;-53
2023/05/09 04:34:45;;;;;;;0.88;0.50;;;22.40;58.60;;;;;;5033732;28;20211;-54
2023/05/09 04:37:16;;;;;;;1.40;0.60;;;22.40;58.60;;;;;;5032362;28;20207;-56
2023/05/09 04:39:46;;;;;;;0.55;0.55;;;22.40;58.60;;;;;;5033248;28;20219;-54
2023/05/09 04:42:17;;;;;;;0.95;0.60;;;22.40;58.50;;;;;;5032812;28;20200;-55
2023/05/09 04:44:48;;;;;;;1.38;0.70;;;22.40;58.50;;;;;;5033562;28;20212;-55
2023/05/09 04:47:20;;;;;;;1.20;0.57;;;22.40;58.50;;;;;;5032836;28;20192;-55
2023/05/09 04:49:51;;;;;;;2.42;0.80;;;22.40;58.40;;;;;;5033589;28;20252;-55
2023/05/09 04:52:22;;;;;;;0.70;0.50;;;22.40;58.40;;;;;;5032544;28;20200;-53
2023/05/09 04:54:52;;;;;;;0.75;0.68;;;22.30;58.30;;;;;;5032320;28;20274;-55
2023/05/09 04:57:23;;;;;;;1.60;0.60;;;22.30;58.30;;;;;;5033164;28;20563;-55
2023/05/09 04:59:53;;;;;;;0.60;0.60;;;22.30;58.20;;;;;;5032536;28;20239;-55
2023/05/09 05:02:26;;;;;;;2.00;0.70;;;22.30;58.20;;;;;;5033019;28;20559;-55
2023/05/09 05:04:57;;;;;;;0.50;0.50;;;22.30;58.30;;;;;;5032706;28;20550;-54
2023/05/09 05:07:27;;;;;;;0.93;0.70;;;22.30;58.30;;;;;;5032631;28;20207;-55
2023/05/09 05:09:58;;;;;;;0.50;0.50;;;22.30;58.30;;;;;;5032646;28;20216;-58
2023/05/09 05:12:29;;;;;;;0.60;0.50;;;22.30;58.40;;;;;;5032903;28;20193;-53
2023/05/09 05:15:08;;;;;;;1.23;0.55;;;22.30;58.40;;;;;;5031898;28;20236;-52
2023/05/09 05:17:40;;;;;;;2.17;0.52;;;22.30;58.40;;;;;;5032870;28;20218;-55
2023/05/09 05:20:11;;;;;;;0.77;0.52;;;22.30;58.40;;;;;;5032358;28;20197;-52
2023/05/09 05:22:42;;;;;;;0.65;0.60;;;22.30;58.30;;;;;;5032424;28;20199;-51
2023/05/09 05:25:13;;;;;;;0.95;0.52;;;22.30;58.30;;;;;;5032697;28;20227;-54
2023/05/09 05:27:43;;;;;;;0.80;0.50;;;22.30;58.20;;;;;;5031603;28;20868;-52
2023/05/09 05:30:15;;;;;;;0.73;0.55;;;22.30;58.30;;;;;;5032452;28;20196;-55
2023/05/09 05:32:48;;;;;;;0.70;0.50;;;22.20;58.20;;;;;;5031706;28;20682;-54
2023/05/09 05:35:21;;;;;;;0.52;0.45;;;22.30;58.30;;;;;;5031344;28;20192;-54
2023/05/09 05:37:51;;;;;;;1.55;0.60;;;22.20;58.30;;;;;;5031436;28;20648;-54
2023/05/09 05:40:22;;;;;;;0.40;0.40;;;22.20;58.20;;;;;;5032356;28;20211;-55
2023/05/09 05:42:53;;;;;;;0.43;0.43;;;22.20;58.20;;;;;;5032254;28;20204;-51
2023/05/09 05:45:24;;;;;;;0.70;0.60;;;22.20;58.30;;;;;;5031506;28;20228;-51
2023/05/09 05:47:57;;;;;;;0.32;0.32;;;22.20;58.30;;;;;;5032491;28;20196;-55
2023/05/09 05:50:27;;;;;;;0.50;0.43;;;22.20;58.30;;;;;;5029521;28;20269;-53
2023/05/09 05:52:58;;;;;;;0.50;0.50;;;22.20;58.30;;;;;;5032383;28;20196;-51
2023/05/09 05:55:28;;;;;;;0.82;0.60;;;22.20;58.30;;;;;;5029445;28;20196;-52
2023/05/09 05:57:59;;;;;;;0.50;0.50;;;22.20;58.30;;;;;;5032071;28;20212;-54
2023/05/09 06:00:30;;;;;;;0.65;0.60;;;22.20;58.30;;;;;;5031298;28;20196;-51
2023/05/09 06:03:02;;;;;;;1.63;0.60;;;22.20;58.30;;;;;;5031518;28;20204;-51
2023/05/09 06:05:33;;;;;;;0.90;0.68;;;22.20;58.30;;;;;;5031848;28;20709;-50
2023/05/09 06:08:04;;;;;;;0.52;0.52;;;22.20;58.30;;;;;;5031479;28;20226;-49
2023/05/09 06:10:34;;;;;;;0.50;0.50;;;22.20;58.30;;;;;;5032103;28;20199;-49
2023/05/09 06:13:05;;;;;;;0.60;0.50;;;22.10;58.20;;;;;;5031230;28;20250;-49
2023/05/09 06:15:36;;;;;;;0.85;0.60;;;22.10;58.20;;;;;;5031851;28;20227;-53
2023/05/09 06:18:09;;;;;;;0.60;0.60;;;22.10;58.80;;;;;;5031438;28;20230;-50
2023/05/09 06:20:39;;;;;;;0.75;0.70;;;22.10;58.20;;;;;;5028331;28;20618;-52
2023/05/09 06:23:10;;;;;;;0.70;0.60;;;22.10;58.20;;;;;;5010399;28;20201;-55
2023/05/09 06:25:41;;;;;;;0.60;0.60;;;22.10;58.20;;;;;;5018704;28;20223;-54
2023/05/09 06:28:11;;;;;;;1.27;0.77;;;22.10;58.30;;;;;;5031466;28;20227;-54
2023/05/09 06:30:42;;;;;;;0.60;0.60;;;22.10;58.30;;;;;;5031864;28;20192;-52
2023/05/09 06:33:14;;;;;;;0.70;0.60;;;22.10;58.30;;;;;;5030524;28;20196;-51
2023/05/09 06:35:45;;;;;;;0.60;0.60;;;22.00;58.20;;;;;;5030391;28;20200;-51
2023/05/09 06:38:15;;;;;;;0.60;0.60;;;22.10;58.30;;;;;;5031504;28;20220;-56
2023/05/09 06:40:46;;;;;;;0.80;0.60;;;22.00;58.20;;;;;;5030082;28;20215;-55
2023/05/09 06:43:17;;;;;;;0.50;0.50;;;22.00;58.20;;;;;;5030919;28;20198;-50
2023/05/09 06:45:47;;;;;;;0.70;0.70;;;22.00;58.10;;;;;;5030237;28;20737;-50
2023/05/09 06:48:20;;;;;;;0.82;0.73;;;22.00;58.10;;;;;;5031724;28;20212;-55
2023/05/09 06:50:51;;;;;;;1.13;0.88;;;22.00;58.10;;;;;;5030763;28;20192;-53
2023/05/09 06:53:21;;;;;;;0.90;0.80;;;22.00;58.20;;;;;;5030441;28;20545;-53
2023/05/09 06:55:52;;;;;;;1.00;0.80;;;22.00;58.20;;;;;;5030857;28;20675;-53
2023/05/09 06:58:23;;;;;;;1.55;0.93;;;22.00;58.20;;;;;;5030688;28;20227;-54
2023/05/09 07:00:53;;;;;;;1.95;0.80;;;22.00;58.20;;;;;;5030280;28;20220;-54
2023/05/09 07:03:26;;;;;;;1.35;1.00;;;22.00;58.20;;;;;;5030254;28;20195;-54
2023/05/09 07:05:57;;;;;;;2.45;1.10;;;22.00;58.20;;;;;;5030116;28;20218;-53
2023/05/09 07:08:28;;;;;;;2.40;1.05;;;21.90;58.20;;;;;;5030467;28;20223;-53
2023/05/09 07:10:59;;;;;;;2.35;1.13;;;21.90;58.20;;;;;;5030189;28;20203;-55
2023/05/09 07:13:30;;;;;;;0.95;0.85;;;21.90;58.20;;;;;;5030944;28;20204;-54
2023/05/09 07:16:00;;;;;;;1.13;0.90;;;21.90;58.20;;;;;;5030946;28;20230;-56
2023/05/09 07:18:33;;;;;;;2.10;1.00;;;21.90;58.20;;;;;;5031526;28;20212;-58
2023/05/09 07:21:03;;;;;;;1.50;0.98;;;21.90;58.20;;;;;;5031005;28;20200;-56
2023/05/09 07:23:34;;;;;;;1.67;1.10;;;21.90;58.20;;;;;;5030072;28;20690;-54
2023/05/09 07:26:04;;;;;;;1.20;0.88;;;21.90;58.20;;;;;;5030186;28;20223;-53
2023/05/09 07:28:35;;;;;;;1.83;0.90;;;21.90;58.20;;;;;;5030888;28;20208;-54
2023/05/09 07:31:08;;;;;;;1.40;0.77;;;21.90;58.20;;;;;;5031234;28;20192;-52
2023/05/09 07:33:40;;;;;;;1.45;0.90;;;21.90;58.20;;;;;;5031156;28;20203;-53
2023/05/09 07:36:12;;;;;;;1.90;1.00;;;21.80;58.20;;;;;;5030459;28;20204;-54
2023/05/09 07:38:43;;;;;;;1.67;1.00;;;21.80;58.20;;;;;;5031638;28;20274;-55
2023/05/09 07:41:14;;;;;;;2.00;1.00;;;21.80;58.20;;;;;;5031236;28;20203;-55
2023/05/09 07:43:44;;;;;;;3.53;1.08;;;21.80;58.20;;;;;;5030752;28;20200;-54
2023/05/09 07:46:15;;;;;;;2.13;1.15;;;21.80;58.20;;;;;;5033887;28;20623;-54
2023/05/09 07:48:47;;;;;;;1.85;0.90;;;21.80;58.20;;;;;;5035072;28;20227;-54
2023/05/09 07:51:18;;;;;;;2.58;1.05;;;21.80;58.20;;;;;;5032157;28;20192;-54
2023/05/09 07:53:49;;;;;;;1.75;1.10;;;21.80;58.20;;;;;;5034212;28;20192;-55
2023/05/09 07:56:20;;;;;;;1.73;0.90;;;21.80;58.20;;;;;;5034177;28;20269;-51
2023/05/09 07:58:50;;;;;;;2.10;1.08;;;21.80;58.20;;;;;;5034260;28;20258;-57
2023/05/09 08:01:21;;;;;;;2.08;1.20;;;21.80;58.20;;;;;;5035123;28;20262;-55
2023/05/09 08:03:53;;;;;;;1.83;1.00;;;21.80;58.20;;;;;;5034904;28;20196;-55
2023/05/09 08:06:25;;;;;;;2.47;1.17;;;21.70;58.20;;;;;;5034088;28;20228;-53
2023/05/09 08:08:55;;;;;;;1.35;0.98;;;21.70;58.20;;;;;;5034208;28;20212;-56
2023/05/09 08:11:26;;;;;;;1.85;1.08;;;21.70;58.20;;;;;;5034243;28;20599;-52
2023/05/09 08:13:57;;;;;;;2.72;1.25;;;21.70;58.20;;;;;;5034638;28;20200;-55
2023/05/09 08:16:28;;;;;;;1.20;1.10;;;21.70;58.10;;;;;;5034645;28;20211;-54
2023/05/09 08:19:00;;;;;;;1.70;0.90;;;21.70;58.10;;;;;;5034376;28;20216;-55
2023/05/09 08:21:31;;;;;;;1.48;1.00;;;21.70;58.10;;;;;;5034470;28;20199;-52
2023/05/09 08:24:01;;;;;;;1.13;0.90;;;21.60;58.10;;;;;;5034412;28;20245;-56
2023/05/09 08:26:32;;;;;;;1.35;1.00;;;21.60;58.10;;;;;;5034058;28;20310;-52
2023/05/09 08:29:03;;;;;;;1.48;1.17;;;21.60;58.10;;;;;;5033918;28;20212;-56
2023/05/09 08:31:33;;;;;;;1.58;1.10;;;21.60;58.10;;;;;;5033925;28;20734;-53
2023/05/09 08:34:06;;;;;;;2.67;1.35;;;21.60;58.10;;;;;;5034097;28;20242;-56
2023/05/09 08:36:36;;;;;;;1.50;1.20;;;21.60;58.10;;;;;;5033138;28;20606;-55
2023/05/09 08:39:08;;;;;;;2.10;1.10;;;21.60;58.10;;;;;;5033540;28;20704;-58
2023/05/09 08:41:40;;;;;;;2.35;1.30;;;21.50;58.10;;;;;;5033726;28;20200;-55
2023/05/09 08:44:11;;;;;;;1.45;1.13;;;21.60;58.10;;;;;;5033676;28;20797;-53
2023/05/09 08:46:44;;;;;;;1.35;1.00;;;21.50;58.00;;;;;;5033813;28;20251;-56
2023/05/09 08:49:18;;;;;;;1.60;1.10;;;21.50;58.00;;;;;;5034009;28;20254;-53
2023/05/09 08:51:49;;;;;;;1.40;1.00;;;21.50;58.00;;;;;;5033558;28;20200;-56
2023/05/09 08:54:20;;;;;;;1.42;1.10;;;21.50;58.00;;;;;;5033889;28;20195;-53
2023/05/09 08:56:51;;;;;;;1.25;1.10;;;21.50;58.00;;;;;;5033156;28;20200;-52
2023/05/09 08:59:22;;;;;;;2.67;1.15;;;21.50;58.00;;;;;;5032981;28;20228;-55
2023/05/09 09:01:54;;;;;;;1.77;1.10;;;21.40;58.00;;;;;;5032592;28;20695;-55
2023/05/09 09:04:27;;;;;;;1.50;1.10;;;21.50;58.00;;;;;;5032988;28;20203;-57
2023/05/09 09:06:58;;;;;;;1.85;1.15;;;21.40;58.00;;;;;;5033583;28;20235;-55
2023/05/09 09:09:29;;;;;;;2.80;1.50;;;21.40;58.00;;;;;;5033161;28;20213;-54
2023/05/09 09:12:02;;;;;;;1.70;1.10;;;21.40;58.00;;;;;;5030127;28;20192;-56
2023/05/09 09:14:39;;;;;;;1.90;1.50;;;21.40;58.00;;;;;;5033436;28;20843;-56
2023/05/09 09:17:13;;;;;;;3.03;1.42;;;21.40;58.10;;;;;;5031757;28;20671;-55
2023/05/09 09:19:50;;;;;;;3.15;1.55;;;21.40;58.00;;;;;;5032604;28;20358;-54
2023/05/09 09:22:22;;;;;;;3.28;1.45;;;21.40;58.10;;;;;;5033178;28;20593;-55
2023/05/09 09:24:53;;;;;;;2.40;1.48;;;21.30;58.00;;;;;;5032255;28;20660;-57
2023/05/09 09:27:23;;;;;;;2.05;1.30;;;21.30;58.10;;;;;;5032324;28;20350;-57
2023/05/09 09:29:54;;;;;;;3.42;1.50;;;21.30;58.10;;;;;;5032297;28;20212;-55
2023/05/09 09:32:35;;;;;;;2.38;1.42;;;21.30;58.00;;;;;;5032903;28;20196;-55
2023/05/09 09:35:12;;;;;;;2.25;1.48;;;21.30;58.00;;;;;;5031658;28;20568;-53
2023/05/09 09:37:43;;;;;;;2.90;1.42;;;21.30;57.90;;;;;;5032006;28;20203;-54
2023/05/09 09:40:15;;;;;;;3.25;1.45;;;21.30;58.00;;;;;;5032292;28;20231;-53
2023/05/09 09:42:48;;;;;;;2.70;1.55;;;21.30;58.00;;;;;;5031246;28;20203;-53
2023/05/09 09:45:19;;;;;;;3.65;1.80;;;21.20;57.90;;;;;;5032574;28;20196;-56
2023/05/09 09:47:51;;;;;;;2.25;1.48;;;21.20;58.00;;;;;;5032016;28;20230;-55
2023/05/09 09:50:24;;;;;;;2.80;1.48;;;21.20;58.00;;;;;;5031609;28;20231;-52
2023/05/09 09:52:55;;;;;;;3.25;1.80;;;21.20;58.00;;;;;;5031747;28;20235;-53
2023/05/09 09:55:26;;;;;;;4.07;1.60;;;21.10;58.00;;;;;;5031104;28;20207;-53
2023/05/09 09:57:57;;;;;;;3.13;1.50;;;21.20;58.00;;;;;;5031364;28;20678;-53
2023/05/09 10:00:29;;;;;;;3.72;1.50;;;21.10;58.00;;;;;;5029675;28;20200;-56
2023/05/09 10:03:00;;;;;;;3.10;1.40;;;21.10;58.00;;;;;;5031135;28;20257;-55
2023/05/09 10:05:33;;;;;;;2.65;1.48;;;21.10;58.00;;;;;;5030695;28;20250;-55
2023/05/09 10:08:06;;;;;;;3.22;1.40;;;21.10;58.00;;;;;;5030406;28;20718;-52
2023/05/09 10:10:37;;;;;;;2.35;1.48;;;21.10;58.00;;;;;;5030775;28;20644;-52
2023/05/09 10:13:10;;;;;;;2.88;1.40;;;21.10;58.00;;;;;;5031457;28;20191;-53
2023/05/09 10:15:42;;;;;;;2.75;1.30;;;21.10;58.00;;;;;;5031583;28;20215;-53
2023/05/09 10:18:18;;;;;;;2.33;1.42;;;21.10;58.00;;;;;;5031881;28;20216;-52
2023/05/09 10:20:51;;;;;;;2.75;1.73;;;21.10;58.00;;;;;;5030819;28;20192;-55
2023/05/09 10:23:22;;;;;;;2.95;1.40;;;21.00;58.00;;;;;;5012763;28;20203;-55
2023/05/09 10:26:00;;;;;;;4.07;1.60;;;21.00;58.00;;;;;;5011678;28;20200;-51
2023/05/09 10:28:34;;;;;;;3.20;1.52;;;21.00;58.00;;;;;;5012243;28;20223;-56
2023/05/09 10:31:13;;;;;;;2.83;1.58;;;21.00;58.00;;;;;;5012717;28;20627;-53
2023/05/09 10:33:48;;;;;;;2.65;1.70;;;21.00;58.00;;;;;;5031468;28;20199;-51
2023/05/09 10:36:22;;;;;;;3.53;1.60;;;21.00;58.00;;;;;;5031471;28;20279;-53
2023/05/09 10:38:54;;;;;;;2.72;1.73;;;21.00;58.00;;;;;;5031409;28;20653;-54
2023/05/09 10:41:25;;;;;;;4.00;1.83;;;21.00;58.00;;;;;;5031726;28;20692;-55
2023/05/09 10:44:00;;;;;;;4.10;1.73;;;20.90;58.00;;;;;;5031060;28;20200;-51
2023/05/09 10:46:31;;;;;;;3.15;1.55;;;20.90;58.00;;;;;;5030638;28;20225;-53
2023/05/09 10:49:02;;;;;;;4.35;1.52;;;20.90;58.00;;;;;;5030638;28;20630;-54
2023/05/09 10:51:35;;;;;;;3.80;2.17;;;20.90;57.90;;;;;;5030699;28;20275;-52
2023/05/09 10:54:16;;;;;;;4.40;2.13;;;20.90;58.00;;;;;;5030842;28;20203;-55
2023/05/09 10:56:47;;;;;;;3.78;1.65;;;20.90;57.90;;;;;;5031268;28;20184;-53
2023/05/09 10:59:37;;;;;;;3.67;2.00;;;20.90;57.90;;;;;;5031021;28;20224;-54
2023/05/09 11:02:12;;;;;;;4.60;1.70;;;20.90;58.00;;;;;;5031197;28;20230;-53
2023/05/09 11:04:44;;;;;;;2.50;1.70;;;20.90;57.90;;;;;;5030444;28;20187;-54
2023/05/09 11:07:29;;;;;;;5.93;2.40;;;20.90;57.90;;;;;;5030484;28;20304;-56
2023/05/09 11:10:10;;;;;;;5.10;2.10;;;20.80;57.90;;;;;;5031394;28;20898;-53
2023/05/09 11:12:56;;;;;;;3.75;1.92;;;20.80;57.90;;;;;;5030853;28;20208;-55
2023/05/09 11:15:27;;;;;;;5.10;2.20;;;20.80;57.90;;;;;;5031376;28;20239;-54
2023/05/09 11:18:09;;;;;;;2.97;1.80;;;20.80;58.00;;;;;;5030927;28;20279;-50
2023/05/09 11:20:46;;;;;;;3.28;2.00;;;20.80;58.00;;;;;;5030751;28;20200;-55
2023/05/09 11:23:20;;;;;;;3.63;2.15;;;20.80;58.00;;;;;;5031667;28;20204;-55
2023/05/09 11:25:51;;;;;;;3.40;1.75;;;20.80;58.00;;;;;;5031266;28;20346;-53
2023/05/09 11:28:30;;;;;;;3.53;1.80;;;20.80;58.00;;;;;;5030931;28;20228;-56
2023/05/09 11:31:12;;;;;;;3.47;1.80;;;20.80;58.00;;;;;;5031226;28;20199;-58
2023/05/09 11:33:44;;;;;;;4.57;1.95;;;20.80;58.00;;;;;;5031279;28;20196;-53
2023/05/09 11:36:24;;;;;;;3.88;2.00;;;20.80;58.00;;;;;;5031214;28;20196;-54
2023/05/09 11:39:07;;;;;;;3.38;1.70;;;20.80;57.90;;;;;;5031180;28;20245;-54
2023/05/09 11:41:44;;;;;;;3.50;1.95;;;20.80;58.00;;;;;;5031361;28;20283;-54
2023/05/09 11:44:19;;;;;;;2.72;1.67;;;20.80;58.60;;;;;;5030935;28;20652;-54
2023/05/09 11:46:51;;;;;;;4.85;1.90;;;20.70;58.00;;;;;;5031005;28;20592;-54
2023/05/09 11:49:22;;;;;;;4.28;1.92;;;20.70;58.00;;;;;;5030770;28;20208;-55
2023/05/09 11:51:52;;;;;;;3.17;2.08;;;20.70;57.90;;;;;;5029938;28;20191;-56
2023/05/09 11:54:26;;;;;;;3.47;2.00;;;20.70;58.00;;;;;;5029957;28;20193;-52
2023/05/09 11:56:58;;;;;;;5.18;1.98;;;20.60;57.90;;;;;;5029956;28;20196;-57
2023/05/09 11:59:30;;;;;;;2.78;1.92;;;20.60;57.90;;;;;;5027560;28;20219;-54
2023/05/09 12:02:06;;;;;;;4.88;2.20;;;20.70;58.60;;;;;;5029843;28;20196;-55
2023/05/09 12:04:37;;;;;;;2.80;1.73;;;20.70;58.00;;;;;;5028825;28;20192;-53
2023/05/09 12:07:08;;;;;;;4.43;2.20;;;20.60;57.90;;;;;;5026858;28;20275;-56
2023/05/09 12:09:42;;;;;;;3.35;2.00;;;20.70;58.00;;;;;;5029388;28;20220;-55
2023/05/09 12:12:13;;;;;;;4.07;1.90;;;20.60;57.90;;;;;;5028073;28;20659;-56
2023/05/09 12:14:44;;;;;;;4.88;2.00;;;20.60;58.00;;;;;;5029711;28;20590;-57
2023/05/09 12:17:15;;;;;;;3.10;2.22;;;20.60;57.90;;;;;;5029722;28;20271;-56
2023/05/09 12:19:47;;;;;;;5.18;1.85;;;20.60;57.90;;;;;;5027145;28;20204;-57
2023/05/09 12:22:18;;;;;;;2.85;1.85;;;20.60;57.90;;;;;;5030155;28;20201;-54
2023/05/09 12:24:53;;;;;;;3.92;1.85;;;20.60;57.90;;;;;;5027032;28;20188;-50
2023/05/09 12:27:25;;;;;;;2.35;1.70;;;20.50;57.90;;;;;;5029135;28;20310;-58
2023/05/09 12:29:56;;;;;;;3.33;2.08;;;20.60;57.90;;;;;;5029092;28;20219;-56
2023/05/09 12:32:30;;;;;;;3.92;1.85;;;20.50;57.90;;;;;;5028895;28;20200;-55
2023/05/09 12:35:02;;;;;;;4.47;1.73;;;20.50;57.90;;;;;;5032509;28;20270;-50
2023/05/09 12:37:33;;;;;;;2.55;1.70;;;20.50;57.90;;;;;;5032219;28;20787;-57
2023/05/09 12:40:07;;;;;;;3.90;2.08;;;20.50;58.00;;;;;;5032066;28;20188;-56
2023/05/09 12:42:38;;;;;;;3.00;1.80;;;20.50;58.00;;;;;;5032267;28;20979;-55
2023/05/09 12:45:11;;;;;;;4.53;1.80;;;20.50;58.00;;;;;;5032915;28;20192;-52
2023/05/09 12:47:44;;;;;;;3.40;2.10;;;20.50;58.00;;;;;;5032537;28;20220;-55
2023/05/09 12:50:14;;;;;;;3.83;2.05;;;20.50;58.00;;;;;;5032239;28;20188;-56
2023/05/09 12:52:46;;;;;;;4.55;2.08;;;20.50;58.00;;;;;;5029444;28;20660;-52
2023/05/09 12:55:20;;;;;;;5.65;2.08;;;20.50;58.00;;;;;;5032291;28;20196;-50
2023/05/09 12:58:01;;;;;;;4.05;2.25;;;20.50;58.00;;;;;;5030307;28;20251;-56
2023/05/09 13:00:42;;;;;;;5.07;2.10;;;20.40;58.00;;;;;;5030457;28;20603;-56
2023/05/09 13:03:24;;;;;;;3.95;2.08;;;20.50;58.00;;;;;;5030410;28;20518;-53
2023/05/09 13:06:02;;;;;;;4.65;2.03;;;20.50;58.00;;;;;;5031957;28;20199;-56
2023/05/09 13:08:33;;;;;;;3.38;2.00;;;20.40;57.90;;;;;;5033107;28;20232;-51
2023/05/09 13:11:06;;;;;;;3.80;1.88;;;20.40;57.90;;;;;;5033425;28;20200;-50
2023/05/09 13:13:37;;;;;;;3.60;1.92;;;20.40;58.00;;;;;;5032908;28;20662;-51